createdAt,value
2019-02-08T00:01:26.665Z,21.10
2019-02-08T00:03:55.839Z,21.83
2019-02-08T00:06:25.154Z,20.70
2019-02-08T00:08:55.103Z,19.87
2019-02-08T00:11:24.289Z,18.83
2019-02-08T00:13:53.818Z,18.90
2019-02-08T00:16:23.291Z,19.03
2019-02-08T00:18:53.838Z,18.37
2019-02-08T00:21:23.133Z,18.40
2019-02-08T00:23:53.717Z,18.23
2019-02-08T00:26:22.920Z,16.90
2019-02-08T00:28:52.127Z,16.23
2019-02-08T00:31:21.342Z,16.23
2019-02-08T00:33:51.960Z,18.23
2019-02-08T00:36:21.153Z,15.97
2019-02-08T00:38:50.323Z,16.03
2019-02-08T00:41:19.530Z,16.97
2019-02-08T00:43:48.719Z,17.47
2019-02-08T00:46:18.231Z,19.10
2019-02-08T00:48:47.842Z,20.40
2019-02-08T00:51:17.834Z,21.53
2019-02-08T00:53:47.021Z,18.87
2019-02-08T00:56:16.219Z,17.43
2019-02-08T00:58:45.455Z,17.97
2019-02-08T01:01:15.409Z,16.77
2019-02-08T01:03:44.878Z,16.10
2019-02-08T01:06:14.326Z,15.93
2019-02-08T01:08:43.525Z,14.63
2019-02-08T01:11:14.392Z,14.77
2019-02-08T01:13:44.136Z,13.17
2019-02-08T01:16:13.693Z,14.37
2019-02-08T01:18:43.434Z,14.03
2019-02-08T01:21:12.621Z,14.23
2019-02-08T01:23:42.080Z,12.70
2019-02-08T01:26:13.028Z,12.60
2019-02-08T01:28:42.211Z,12.80
2019-02-08T01:31:12.210Z,11.73
2019-02-08T01:33:41.680Z,11.87
2019-02-08T01:36:10.829Z,11.90
2019-02-08T01:38:40.035Z,11.27
2019-02-08T01:41:09.409Z,10.97
2019-02-08T01:43:38.595Z,10.87
2019-02-08T01:46:08.058Z,10.63
2019-02-08T01:48:39.693Z,11.00
2019-02-08T01:51:09.082Z,10.13
2019-02-08T01:53:38.600Z,10.77
2019-02-08T01:56:08.136Z,11.90
2019-02-08T01:58:37.348Z,11.87
2019-02-08T02:01:07.802Z,12.93
2019-02-08T02:03:37.621Z,11.70
2019-02-08T02:06:07.082Z,13.40
2019-02-08T02:08:36.286Z,12.67
2019-02-08T02:11:05.594Z,13.80
2019-02-08T02:13:35.081Z,12.93
2019-02-08T02:16:04.387Z,11.63
2019-02-08T02:18:34.359Z,12.57
2019-02-08T02:21:04.432Z,12.63
2019-02-08T02:23:33.913Z,13.10
2019-02-08T02:26:03.125Z,13.87
2019-02-08T02:28:32.692Z,12.97
2019-02-08T02:31:02.126Z,11.73
2019-02-08T02:33:31.776Z,12.13
2019-02-08T02:36:00.988Z,12.10
2019-02-08T02:38:30.522Z,12.37
2019-02-08T02:40:59.707Z,11.90
2019-02-08T02:43:29.165Z,10.73
2019-02-08T02:45:58.356Z,11.13
2019-02-08T02:48:27.804Z,10.93
2019-02-08T02:50:57.034Z,10.73
2019-02-08T02:53:26.230Z,10.63
2019-02-08T02:55:55.733Z,10.60
2019-02-08T02:58:25.490Z,9.80
2019-02-08T03:00:54.720Z,10.53
2019-02-08T03:03:24.941Z,10.73
2019-02-08T03:05:54.156Z,11.20
2019-02-08T03:08:23.612Z,10.03
2019-02-08T03:10:52.833Z,10.20
2019-02-08T03:13:22.340Z,9.57
2019-02-08T03:15:51.814Z,9.20
2019-02-08T03:18:20.999Z,9.23
2019-02-08T03:20:50.180Z,8.93
2019-02-08T03:23:19.649Z,8.97
2019-02-08T03:25:48.831Z,9.27
2019-02-08T03:28:18.389Z,9.03
2019-02-08T03:30:51.140Z,8.47
2019-02-08T03:33:20.310Z,9.27
2019-02-08T03:35:49.920Z,8.07
2019-02-08T03:38:19.668Z,8.70
2019-02-08T03:40:48.835Z,8.60
2019-02-08T03:43:18.376Z,7.53
2019-02-08T03:45:50.725Z,8.77
2019-02-08T03:48:19.928Z,9.47
2019-02-08T03:50:49.113Z,10.27
2019-02-08T03:53:18.614Z,10.23
2019-02-08T03:55:48.084Z,10.73
2019-02-08T03:58:17.665Z,10.40
2019-02-08T04:01:00.404Z,10.67
2019-02-08T04:03:30.005Z,10.17
2019-02-08T04:05:59.590Z,9.97
2019-02-08T04:08:29.594Z,9.33
2019-02-08T04:10:59.574Z,9.60
2019-02-08T04:13:28.761Z,9.67
2019-02-08T04:15:57.935Z,9.50
2019-02-08T04:18:27.454Z,8.37
2019-02-08T04:20:56.865Z,8.63
2019-02-08T04:23:27.817Z,8.40
2019-02-08T04:25:56.961Z,8.07
2019-02-08T04:28:26.402Z,8.53
2019-02-08T04:30:55.856Z,8.03
2019-02-08T04:33:25.062Z,8.33
2019-02-08T04:35:55.012Z,8.10
2019-02-08T04:38:24.195Z,8.70
2019-02-08T04:40:53.370Z,9.03
2019-02-08T04:43:22.566Z,8.90
2019-02-08T04:45:51.722Z,8.43
2019-02-08T04:48:21.189Z,9.23
2019-02-08T04:50:50.367Z,9.17
2019-02-08T04:53:20.329Z,9.07
2019-02-08T04:55:50.615Z,9.27
2019-02-08T04:58:20.095Z,9.30
2019-02-08T05:00:49.916Z,8.57
2019-02-08T05:03:19.217Z,8.97
2019-02-08T05:05:48.696Z,9.23
2019-02-08T05:08:17.879Z,9.70
2019-02-08T05:10:48.230Z,8.50
2019-02-08T05:13:17.448Z,8.43
2019-02-08T05:15:46.601Z,8.53
2019-02-08T05:18:15.796Z,8.53
2019-02-08T05:20:44.984Z,9.07
2019-02-08T05:23:14.155Z,8.70
2019-02-08T05:25:43.335Z,8.77
2019-02-08T05:28:12.492Z,9.53
2019-02-08T05:30:41.690Z,9.70
2019-02-08T05:33:11.139Z,8.93
2019-02-08T05:35:40.334Z,8.80
2019-02-08T05:38:09.742Z,9.50
2019-02-08T05:40:39.323Z,10.07
2019-02-08T05:43:08.580Z,9.57
2019-02-08T05:45:37.764Z,10.40
2019-02-08T05:48:07.530Z,10.23
2019-02-08T05:50:36.741Z,11.23
2019-02-08T05:53:06.797Z,11.67
2019-02-08T05:55:36.783Z,10.93
2019-02-08T05:58:07.078Z,10.97
2019-02-08T06:00:51.067Z,11.00
2019-02-08T06:03:20.517Z,11.60
2019-02-08T06:05:50.155Z,10.77
2019-02-08T06:08:19.370Z,11.13
2019-02-08T06:10:48.565Z,12.17
2019-02-08T06:13:17.738Z,13.10
2019-02-08T06:15:47.205Z,11.03
2019-02-08T06:18:16.396Z,11.33
2019-02-08T06:20:46.047Z,11.10
2019-02-08T06:23:16.033Z,10.87
2019-02-08T06:25:45.976Z,11.10
2019-02-08T06:28:15.169Z,10.80
2019-02-08T06:30:44.627Z,11.73
2019-02-08T06:33:13.944Z,11.30
2019-02-08T06:35:43.710Z,11.40
2019-02-08T06:38:12.875Z,10.87
2019-02-08T06:40:43.737Z,11.93
2019-02-08T06:43:12.913Z,11.30
2019-02-08T06:45:42.325Z,10.63
2019-02-08T06:48:13.356Z,10.67
2019-02-08T06:50:42.540Z,11.13
2019-02-08T06:53:11.736Z,10.60
2019-02-08T06:55:40.935Z,11.17
2019-02-08T06:58:44.877Z,10.70
2019-02-08T07:01:39.443Z,10.93
2019-02-08T07:04:38.244Z,12.00
2019-02-08T07:07:18.887Z,10.23
2019-02-08T07:10:10.376Z,10.87
2019-02-08T07:13:01.590Z,10.53
2019-02-08T07:15:44.058Z,10.00
2019-02-08T07:18:35.333Z,9.90
2019-02-08T07:21:22.452Z,10.57
2019-02-08T07:24:19.672Z,9.87
2019-02-08T07:27:07.030Z,10.40
2019-02-08T07:30:02.052Z,10.90
2019-02-08T07:32:51.611Z,10.27
2019-02-08T07:35:52.177Z,10.13
2019-02-08T07:38:46.380Z,10.80
2019-02-08T07:41:35.509Z,9.90
2019-02-08T07:44:22.705Z,10.70
2019-02-08T07:47:14.685Z,10.90
2019-02-08T07:50:02.856Z,10.93
2019-02-08T07:52:43.229Z,10.13
2019-02-08T07:55:43.331Z,10.83
2019-02-08T07:58:18.867Z,10.63
2019-02-08T08:01:15.964Z,9.70
2019-02-08T08:04:03.577Z,9.53
2019-02-08T08:06:56.387Z,10.20
2019-02-08T08:09:44.570Z,10.83
2019-02-08T08:12:31.749Z,13.90
2019-02-08T08:15:20.352Z,9.73
2019-02-08T08:18:07.833Z,9.80
2019-02-08T08:20:54.734Z,9.30
2019-02-08T08:23:42.514Z,10.07
2019-02-08T08:26:31.043Z,9.40
2019-02-08T08:29:17.750Z,10.07
2019-02-08T08:31:56.011Z,8.53
2019-02-08T08:34:51.455Z,8.93
2019-02-08T08:37:46.512Z,9.50
2019-02-08T08:40:59.438Z,9.33
2019-02-08T08:44:13.800Z,10.40
2019-02-08T08:47:14.137Z,9.40
2019-02-08T08:50:23.378Z,9.90
2019-02-08T08:53:32.014Z,10.37
2019-02-08T08:56:28.650Z,10.90
2019-02-08T08:59:51.398Z,11.10
2019-02-08T09:02:42.949Z,11.57
2019-02-08T09:05:57.211Z,11.27
2019-02-08T09:09:00.869Z,11.43
2019-02-08T09:11:57.847Z,11.47
2019-02-08T09:15:02.507Z,11.97
2019-02-08T09:18:06.876Z,10.87
2019-02-08T09:21:35.715Z,12.00
2019-02-08T09:24:35.096Z,11.83
2019-02-08T09:27:55.436Z,12.40
2019-02-08T09:31:14.973Z,12.00
2019-02-08T09:34:08.500Z,11.87
2019-02-08T09:37:30.744Z,11.53
2019-02-08T09:40:39.344Z,11.97
2019-02-08T09:43:43.730Z,11.20
2019-02-08T09:46:35.715Z,11.00
2019-02-08T09:49:37.894Z,11.10
2019-02-08T09:52:33.074Z,9.90
2019-02-08T09:55:31.308Z,12.43
2019-02-08T09:58:49.297Z,11.07
2019-02-08T10:01:55.501Z,11.53
2019-02-08T10:05:23.337Z,10.00
2019-02-08T10:08:28.365Z,10.27
2019-02-08T10:11:53.347Z,11.70
2019-02-08T10:15:05.429Z,8.87
2019-02-08T10:18:09.973Z,8.33
2019-02-08T10:21:13.596Z,8.53
2019-02-08T10:24:28.767Z,8.03
2019-02-08T10:27:31.357Z,7.70
2019-02-08T10:30:46.405Z,8.27
2019-02-08T10:33:58.314Z,7.80
2019-02-08T10:36:58.631Z,7.97
2019-02-08T10:40:23.171Z,6.70
2019-02-08T10:43:42.084Z,7.07
2019-02-08T10:46:32.732Z,7.20
2019-02-08T10:49:50.344Z,6.73
2019-02-08T10:53:11.283Z,6.50
2019-02-08T10:56:26.417Z,6.27
2019-02-08T10:59:32.139Z,6.37
2019-02-08T11:02:25.479Z,6.03
2019-02-08T11:06:00.044Z,6.27
2019-02-08T11:09:22.417Z,5.40
2019-02-08T11:12:39.184Z,6.00
2019-02-08T11:15:40.511Z,5.90
2019-02-08T11:18:49.242Z,5.80
2019-02-08T11:21:18.411Z,5.27
2019-02-08T11:23:48.376Z,4.93
2019-02-08T11:26:23.106Z,5.27
2019-02-08T11:28:48.877Z,5.10
2019-02-08T11:31:18.051Z,5.13
2019-02-08T11:33:47.250Z,5.40
2019-02-08T11:36:16.513Z,5.13
2019-02-08T11:38:45.700Z,4.93
2019-02-08T11:41:15.221Z,4.63
2019-02-08T11:43:44.372Z,4.77
2019-02-08T11:46:14.096Z,5.50
2019-02-08T11:48:43.330Z,5.57
2019-02-08T11:51:12.612Z,4.90
2019-02-08T11:53:42.765Z,5.00
2019-02-08T11:56:12.697Z,5.43
2019-02-08T11:58:44.481Z,5.80
2019-02-08T12:01:14.009Z,4.60
2019-02-08T12:03:43.880Z,5.00
2019-02-08T12:06:13.888Z,4.63
2019-02-08T12:08:43.455Z,4.53
2019-02-08T12:11:12.649Z,4.50
2019-02-08T12:13:42.013Z,3.97
2019-02-08T12:16:11.831Z,4.10
2019-02-08T12:18:42.212Z,4.63
2019-02-08T12:21:11.845Z,4.17
2019-02-08T12:23:41.458Z,4.03
2019-02-08T12:26:11.046Z,4.23
2019-02-08T12:28:41.551Z,4.13
2019-02-08T12:31:10.725Z,3.80
2019-02-08T12:33:40.154Z,3.70
2019-02-08T12:36:12.068Z,4.47
2019-02-08T12:38:41.583Z,4.00
2019-02-08T12:41:10.795Z,3.93
2019-02-08T12:43:39.971Z,4.20
2019-02-08T12:46:09.946Z,3.70
2019-02-08T12:48:39.153Z,3.87
2019-02-08T12:51:09.099Z,5.53
2019-02-08T12:53:38.272Z,3.87
2019-02-08T12:56:07.502Z,4.33
2019-02-08T12:58:36.658Z,4.17
2019-02-08T13:01:06.804Z,4.20
2019-02-08T13:03:35.988Z,4.57
2019-02-08T13:06:05.449Z,4.00
2019-02-08T13:08:35.126Z,3.73
2019-02-08T13:11:04.486Z,4.70
2019-02-08T13:13:34.191Z,3.50
2019-02-08T13:16:03.349Z,4.13
2019-02-08T13:18:32.546Z,3.90
2019-02-08T13:21:01.711Z,4.83
2019-02-08T13:23:30.916Z,4.57
2019-02-08T13:26:00.059Z,3.50
2019-02-08T13:28:29.261Z,4.13
2019-02-08T13:30:58.419Z,5.67
2019-02-08T13:33:27.932Z,4.30
2019-02-08T13:35:57.101Z,4.90
2019-02-08T13:38:26.296Z,4.70
2019-02-08T13:40:55.757Z,4.23
2019-02-08T13:43:26.112Z,3.60
2019-02-08T13:45:55.607Z,5.03
2019-02-08T13:48:26.309Z,4.30
2019-02-08T13:50:55.463Z,4.10
2019-02-08T13:53:25.185Z,4.70
2019-02-08T13:55:54.317Z,3.83
2019-02-08T13:58:23.498Z,4.20
2019-02-08T14:00:53.058Z,4.07
2019-02-08T14:03:22.244Z,4.07
2019-02-08T14:05:51.679Z,3.87
2019-02-08T14:08:22.109Z,3.40
2019-02-08T14:10:51.323Z,3.20
2019-02-08T14:13:20.507Z,2.90
2019-02-08T14:15:50.432Z,2.90
2019-02-08T14:18:19.675Z,3.00
2019-02-08T14:20:48.849Z,3.00
2019-02-08T14:23:18.303Z,2.63
2019-02-08T14:25:47.493Z,3.07
2019-02-08T14:28:17.044Z,2.90
2019-02-08T14:30:46.585Z,2.83
2019-02-08T14:33:15.745Z,2.90
2019-02-08T14:35:44.932Z,3.00
2019-02-08T14:38:18.488Z,2.70
2019-02-08T14:40:47.735Z,2.87
2019-02-08T14:43:17.320Z,2.90
2019-02-08T14:45:46.802Z,3.70
2019-02-08T14:48:15.968Z,2.90
2019-02-08T14:50:45.174Z,3.03
2019-02-08T14:53:14.354Z,3.00
2019-02-08T14:55:43.557Z,2.97
2019-02-08T14:58:14.184Z,2.30
2019-02-08T15:00:43.412Z,2.87
2019-02-08T15:03:12.570Z,2.77
2019-02-08T15:05:42.068Z,2.60
2019-02-08T15:08:11.228Z,2.73
2019-02-08T15:10:43.073Z,2.53
2019-02-08T15:13:12.238Z,2.70
2019-02-08T15:15:41.523Z,2.60
2019-02-08T15:18:11.142Z,2.70
2019-02-08T15:20:40.653Z,2.30
2019-02-08T15:23:10.611Z,2.60
2019-02-08T15:25:39.867Z,2.30
2019-02-08T15:28:24.392Z,2.43
2019-02-08T15:30:55.351Z,2.77
2019-02-08T15:33:24.784Z,2.30
2019-02-08T15:35:53.937Z,2.67
2019-02-08T15:38:23.472Z,2.77
2019-02-08T15:40:55.867Z,2.50
2019-02-08T15:43:26.951Z,1.90
2019-02-08T15:46:00.404Z,1.83
2019-02-08T15:48:37.662Z,2.40
2019-02-08T15:51:10.112Z,1.83
2019-02-08T15:53:39.608Z,1.70
2019-02-08T15:56:13.027Z,1.80
2019-02-08T15:58:42.251Z,1.67
2019-02-08T16:01:12.371Z,1.57
2019-02-08T16:03:42.336Z,1.60
2019-02-08T16:06:12.766Z,1.73
2019-02-08T16:08:54.632Z,1.87
2019-02-08T16:11:25.843Z,1.47
2019-02-08T16:13:55.883Z,1.80
2019-02-08T16:16:25.506Z,1.70
2019-02-08T16:18:58.055Z,2.00
2019-02-08T16:21:27.540Z,1.40
2019-02-08T16:23:58.128Z,1.60
2019-02-08T16:26:29.364Z,2.23
2019-02-08T16:29:00.526Z,1.83
2019-02-08T16:31:30.250Z,1.80
2019-02-08T16:34:00.205Z,1.87
2019-02-08T16:36:30.959Z,1.93
2019-02-08T16:39:02.426Z,1.70
2019-02-08T16:41:31.953Z,2.10
2019-02-08T16:44:01.507Z,15.47
2019-02-08T16:46:31.183Z,3.10
2019-02-08T16:49:00.491Z,2.17
2019-02-08T16:51:31.270Z,1.53
2019-02-08T16:54:02.929Z,1.47
2019-02-08T16:56:32.397Z,1.33
2019-02-08T16:59:03.736Z,1.73
2019-02-08T17:01:33.253Z,2.40
2019-02-08T17:04:03.462Z,2.03
2019-02-08T17:06:32.688Z,2.37
2019-02-08T17:09:06.113Z,2.60
2019-02-08T17:11:36.208Z,2.50
2019-02-08T17:14:05.542Z,3.70
2019-02-08T17:16:34.781Z,2.13
2019-02-08T17:19:04.193Z,2.43
2019-02-08T17:21:33.368Z,2.23
2019-02-08T17:24:02.566Z,2.00
2019-02-08T17:26:32.016Z,2.67
2019-02-08T17:29:01.551Z,2.30
2019-02-08T17:31:31.321Z,2.10
2019-02-08T17:34:00.936Z,2.13
2019-02-08T17:36:32.968Z,2.57
2019-02-08T17:39:02.678Z,3.17
2019-02-08T17:41:35.448Z,6.13
2019-02-08T17:44:05.240Z,8.10
2019-02-08T17:46:35.836Z,5.47
2019-02-08T17:49:06.200Z,19.70
2019-02-08T17:51:36.906Z,26.30
2019-02-08T17:54:06.155Z,26.07
2019-02-08T17:56:35.335Z,34.53
2019-02-08T17:59:06.096Z,17.97
2019-02-08T18:01:36.206Z,4.43
2019-02-08T18:04:05.779Z,9.57
2019-02-08T18:06:35.734Z,7.50
2019-02-08T18:09:08.769Z,10.33
2019-02-08T18:11:38.160Z,15.03
2019-02-08T18:14:15.849Z,26.57
2019-02-08T18:16:47.941Z,67.57
2019-02-08T18:19:17.352Z,9.20
2019-02-08T18:21:46.965Z,4.13
2019-02-08T18:24:17.286Z,6.47
2019-02-08T18:26:46.593Z,8.37
2019-02-08T18:29:16.113Z,2.70
2019-02-08T18:31:45.291Z,2.30
2019-02-08T18:34:14.453Z,2.70
2019-02-08T18:36:43.633Z,2.20
2019-02-08T18:39:12.810Z,2.40
2019-02-08T18:41:42.769Z,2.77
2019-02-08T18:44:11.961Z,17.97
2019-02-08T18:46:42.384Z,3.67
2019-02-08T18:49:12.304Z,2.20
2019-02-08T18:51:42.518Z,2.33
2019-02-08T18:54:13.895Z,2.43
2019-02-08T18:56:47.472Z,2.47
2019-02-08T18:59:17.490Z,2.17
2019-02-08T19:01:50.985Z,2.50
2019-02-08T19:04:20.771Z,2.63
2019-02-08T19:06:50.695Z,2.80
2019-02-08T19:09:23.004Z,2.50
2019-02-08T19:11:52.985Z,2.13
2019-02-08T19:14:24.743Z,2.30
2019-02-08T19:16:56.295Z,2.50
2019-02-08T19:19:26.049Z,2.40
2019-02-08T19:21:55.324Z,2.60
2019-02-08T19:24:25.677Z,2.60
2019-02-08T19:26:57.120Z,2.13
2019-02-08T19:29:27.344Z,3.13
2019-02-08T19:32:01.582Z,2.57
2019-02-08T19:34:32.036Z,2.40
2019-02-08T19:37:03.024Z,2.60
2019-02-08T19:39:32.602Z,2.23
2019-02-08T19:42:02.240Z,2.50
2019-02-08T19:44:31.921Z,2.40
2019-02-08T19:47:04.841Z,2.47
2019-02-08T19:49:35.545Z,2.47
2019-02-08T19:52:07.480Z,2.10
2019-02-08T19:54:36.750Z,2.70
2019-02-08T19:57:06.546Z,2.47
2019-02-08T19:59:37.411Z,2.17
2019-02-08T20:02:09.385Z,2.60
2019-02-08T20:04:40.049Z,2.53
2019-02-08T20:07:12.518Z,2.50
2019-02-08T20:09:42.940Z,2.73
2019-02-08T20:12:12.861Z,2.07
2019-02-08T20:14:44.242Z,2.60
2019-02-08T20:17:15.085Z,3.00
2019-02-08T20:19:44.337Z,3.03
2019-02-08T20:22:16.235Z,2.90
2019-02-08T20:24:45.619Z,2.40
2019-02-08T20:27:16.486Z,2.53
2019-02-08T20:29:45.710Z,2.73
2019-02-08T20:32:18.249Z,2.77
2019-02-08T20:34:50.457Z,2.43
2019-02-08T20:37:21.578Z,2.80
2019-02-08T20:39:50.884Z,2.20
2019-02-08T20:42:20.435Z,2.23
2019-02-08T20:44:49.612Z,2.50
2019-02-08T20:47:21.716Z,2.37
2019-02-08T20:49:50.898Z,2.37
2019-02-08T20:52:20.119Z,2.07
2019-02-08T20:54:49.284Z,2.43
2019-02-08T20:57:21.800Z,2.40
2019-02-08T20:59:50.970Z,2.57
2019-02-08T21:02:28.519Z,2.20
2019-02-08T21:04:58.378Z,2.23
2019-02-08T21:07:27.760Z,1.97
2019-02-08T21:09:57.088Z,2.07
2019-02-08T21:12:28.647Z,2.10
2019-02-08T21:14:58.146Z,2.40
2019-02-08T21:17:27.387Z,2.33
2019-02-08T21:19:59.064Z,1.73
2019-02-08T21:22:28.463Z,2.10
2019-02-08T21:25:07.735Z,2.27
2019-02-08T21:27:36.940Z,2.27
2019-02-08T21:30:07.392Z,1.80
2019-02-08T21:32:36.584Z,1.60
2019-02-08T21:35:06.924Z,1.80
2019-02-08T21:37:36.133Z,2.00
2019-02-08T21:40:07.435Z,1.90
2019-02-08T21:42:36.623Z,2.00
2019-02-08T21:45:09.611Z,2.07
2019-02-08T21:47:39.140Z,1.80
2019-02-08T21:50:11.278Z,1.90
2019-02-08T21:52:40.489Z,2.10
2019-02-08T21:55:12.308Z,2.10
2019-02-08T21:57:41.612Z,2.00
2019-02-08T22:00:27.144Z,2.10
2019-02-08T22:02:57.488Z,2.23
2019-02-08T22:05:35.747Z,2.20
2019-02-08T22:08:06.019Z,2.13
2019-02-08T22:10:38.389Z,2.30
2019-02-08T22:13:10.377Z,2.20
2019-02-08T22:15:39.759Z,2.20
2019-02-08T22:18:11.069Z,2.10
2019-02-08T22:20:41.868Z,2.00
2019-02-08T22:23:11.299Z,2.00
2019-02-08T22:25:40.855Z,2.10
2019-02-08T22:28:10.465Z,2.10
2019-02-08T22:30:39.764Z,2.50
2019-02-08T22:33:09.052Z,2.73
2019-02-08T22:35:38.986Z,2.00
2019-02-08T22:38:08.970Z,2.73
2019-02-08T22:40:39.931Z,2.20
2019-02-08T22:43:09.095Z,2.20
2019-02-08T22:45:39.891Z,2.50
2019-02-08T22:48:09.405Z,2.63
2019-02-08T22:50:38.614Z,2.50
2019-02-08T22:53:09.647Z,2.37
2019-02-08T22:55:38.845Z,2.73
2019-02-08T22:58:08.765Z,2.70
2019-02-08T23:01:26.162Z,2.20
2019-02-08T23:04:00.947Z,2.20
2019-02-08T23:06:30.225Z,2.70
2019-02-08T23:09:00.290Z,2.67
2019-02-08T23:11:30.346Z,2.40
2019-02-08T23:13:59.535Z,2.67
2019-02-08T23:16:28.848Z,2.33
2019-02-08T23:18:58.303Z,2.20
2019-02-08T23:21:27.495Z,2.30
2019-02-08T23:23:57.459Z,2.40
2019-02-08T23:26:27.346Z,2.03
2019-02-08T23:28:57.592Z,2.47
2019-02-08T23:31:27.127Z,2.20
2019-02-08T23:33:56.568Z,2.10
2019-02-08T23:36:25.756Z,1.87
2019-02-08T23:38:55.268Z,2.03
2019-02-08T23:41:25.826Z,2.47
2019-02-08T23:43:55.263Z,2.40
2019-02-08T23:46:25.550Z,2.10
2019-02-08T23:48:54.704Z,1.80
2019-02-08T23:51:23.903Z,2.60
2019-02-08T23:53:53.893Z,2.07
2019-02-08T23:56:23.451Z,2.07
2019-02-08T23:58:52.605Z,2.53
